createdAt,value
2019-02-12T00:01:57.725Z,3.60
2019-02-12T00:04:03.798Z,3.60
2019-02-12T00:06:08.685Z,3.50
2019-02-12T00:08:13.735Z,3.50
2019-02-12T00:10:19.463Z,3.50
2019-02-12T00:12:29.729Z,3.50
2019-02-12T00:14:34.562Z,3.60
2019-02-12T00:16:39.980Z,3.60
2019-02-12T00:18:44.698Z,3.60
2019-02-12T00:20:49.508Z,3.60
2019-02-12T00:22:54.330Z,3.60
2019-02-12T00:24:58.897Z,3.50
2019-02-12T00:27:03.750Z,3.50
2019-02-12T00:29:08.300Z,3.50
2019-02-12T00:31:13.244Z,3.50
2019-02-12T00:33:17.698Z,3.50
2019-02-12T00:35:22.463Z,3.30
2019-02-12T00:37:26.824Z,3.20
2019-02-12T00:39:31.714Z,3.30
2019-02-12T00:41:36.494Z,3.30
2019-02-12T00:43:41.264Z,3.20
2019-02-12T00:45:45.928Z,3.30
2019-02-12T00:47:52.188Z,3.30
2019-02-12T00:49:56.695Z,3.30
2019-02-12T00:52:01.093Z,3.20
2019-02-12T00:54:05.494Z,3.10
2019-02-12T00:56:09.953Z,3.10
2019-02-12T00:58:14.751Z,3.10
2019-02-12T01:00:19.248Z,3.10
2019-02-12T01:02:24.245Z,3.10
2019-02-12T01:04:33.680Z,3.00
2019-02-12T01:06:40.884Z,3.00
2019-02-12T01:08:45.319Z,3.00
2019-02-12T01:10:49.783Z,3.10
2019-02-12T01:12:55.084Z,3.10
2019-02-12T01:15:00.032Z,3.10
2019-02-12T01:17:06.490Z,3.10
2019-02-12T01:19:10.911Z,3.20
2019-02-12T01:21:15.391Z,3.20
2019-02-12T01:23:19.839Z,3.10
2019-02-12T01:25:24.329Z,3.10
2019-02-12T01:27:30.878Z,3.10
2019-02-12T01:29:35.265Z,3.10
2019-02-12T01:31:43.198Z,3.10
2019-02-12T01:33:48.285Z,3.00
2019-02-12T01:35:53.570Z,3.00
2019-02-12T01:37:58.480Z,3.00
2019-02-12T01:40:02.892Z,3.00
2019-02-12T01:42:07.391Z,3.00
2019-02-12T01:44:11.898Z,3.00
2019-02-12T01:46:16.445Z,3.00
2019-02-12T01:48:22.639Z,3.00
2019-02-12T01:50:27.081Z,3.00
2019-02-12T01:52:31.835Z,3.00
2019-02-12T01:54:36.165Z,3.10
2019-02-12T01:56:44.845Z,3.10
2019-02-12T01:58:49.168Z,3.10
2019-02-12T02:00:53.802Z,3.10
2019-02-12T02:02:58.152Z,3.00
2019-02-12T02:05:02.831Z,3.00
2019-02-12T02:07:07.217Z,3.00
2019-02-12T02:09:11.932Z,3.00
2019-02-12T02:11:16.302Z,3.00
2019-02-12T02:13:23.742Z,3.00
2019-02-12T02:15:28.267Z,2.90
2019-02-12T02:17:33.856Z,3.00
2019-02-12T02:19:38.231Z,3.00
2019-02-12T02:21:44.304Z,2.90
2019-02-12T02:23:49.128Z,3.00
2019-02-12T02:25:53.493Z,2.90
2019-02-12T02:28:00.526Z,3.00
2019-02-12T02:30:05.377Z,3.10
2019-02-12T02:32:09.868Z,3.00
2019-02-12T02:34:14.343Z,3.00
2019-02-12T02:36:18.778Z,3.10
2019-02-12T02:38:23.165Z,3.10
2019-02-12T02:40:27.646Z,3.00
2019-02-12T02:42:32.623Z,3.10
2019-02-12T02:44:37.058Z,3.10
2019-02-12T02:46:41.595Z,3.10
2019-02-12T02:48:46.071Z,3.10
2019-02-12T02:50:50.889Z,3.10
2019-02-12T02:52:55.654Z,3.20
2019-02-12T02:55:00.345Z,3.10
2019-02-12T02:57:04.684Z,3.10
2019-02-12T02:59:09.056Z,3.10
2019-02-12T03:01:13.807Z,3.10
2019-02-12T03:03:18.283Z,3.10
2019-02-12T03:05:23.813Z,3.00
2019-02-12T03:07:28.184Z,3.00
2019-02-12T03:09:32.542Z,2.90
2019-02-12T03:11:37.096Z,2.90
2019-02-12T03:13:42.090Z,2.90
2019-02-12T03:15:46.924Z,2.90
2019-02-12T03:17:55.097Z,3.00
2019-02-12T03:19:59.913Z,3.10
2019-02-12T03:22:04.380Z,3.00
2019-02-12T03:24:10.148Z,3.00
2019-02-12T03:26:14.498Z,3.10
2019-02-12T03:28:18.823Z,3.10
2019-02-12T03:30:23.684Z,3.10
2019-02-12T03:32:28.066Z,3.10
2019-02-12T03:34:34.870Z,3.20
2019-02-12T03:36:39.587Z,3.20
2019-02-12T03:38:47.034Z,3.20
2019-02-12T03:40:51.872Z,3.10
2019-02-12T03:42:56.718Z,3.10
2019-02-12T03:45:03.606Z,3.20
2019-02-12T03:47:08.133Z,3.20
2019-02-12T03:49:16.532Z,3.20
2019-02-12T03:51:21.384Z,3.20
2019-02-12T03:53:25.723Z,3.20
2019-02-12T03:55:30.168Z,3.10
2019-02-12T03:57:34.738Z,3.00
2019-02-12T03:59:40.850Z,3.00
2019-02-12T04:01:45.539Z,2.90
2019-02-12T04:03:50.810Z,2.90
2019-02-12T04:05:56.000Z,2.80
2019-02-12T04:08:00.762Z,2.70
2019-02-12T04:10:05.230Z,2.70
2019-02-12T04:12:10.301Z,2.70
2019-02-12T04:14:14.853Z,2.70
2019-02-12T04:16:26.338Z,2.70
2019-02-12T04:18:32.263Z,2.70
2019-02-12T04:20:36.676Z,2.70
2019-02-12T04:22:40.983Z,2.70
2019-02-12T04:24:45.670Z,2.60
2019-02-12T04:26:50.114Z,2.60
2019-02-12T04:28:54.914Z,2.60
2019-02-12T04:30:59.348Z,2.60
2019-02-12T04:33:03.897Z,2.60
2019-02-12T04:35:08.437Z,2.60
2019-02-12T04:37:13.398Z,2.50
2019-02-12T04:39:18.189Z,2.50
2019-02-12T04:41:22.652Z,2.60
2019-02-12T04:43:28.757Z,2.50
2019-02-12T04:45:33.496Z,2.50
2019-02-12T04:47:37.868Z,2.40
2019-02-12T04:49:42.187Z,2.40
2019-02-12T04:51:48.953Z,2.50
2019-02-12T04:53:54.047Z,2.50
2019-02-12T04:55:58.424Z,2.50
2019-02-12T04:58:02.966Z,2.40
2019-02-12T05:00:11.024Z,2.30
2019-02-12T05:02:15.610Z,2.30
2019-02-12T05:04:20.148Z,2.20
2019-02-12T05:06:24.560Z,2.20
2019-02-12T05:08:52.026Z,2.20
2019-02-12T05:11:02.940Z,2.20
2019-02-12T05:13:07.393Z,2.20
2019-02-12T05:15:12.168Z,2.20
2019-02-12T05:17:18.323Z,2.20
2019-02-12T05:19:24.066Z,2.20
2019-02-12T05:21:30.220Z,2.20
2019-02-12T05:23:36.030Z,2.20
2019-02-12T05:25:40.505Z,2.30
2019-02-12T05:27:45.557Z,2.30
2019-02-12T05:29:51.539Z,2.40
2019-02-12T05:31:56.052Z,2.30
2019-02-12T05:34:00.886Z,2.30
2019-02-12T05:36:05.873Z,2.40
2019-02-12T05:38:10.300Z,2.40
2019-02-12T05:40:14.664Z,2.40
2019-02-12T05:42:19.150Z,2.30
2019-02-12T05:44:23.580Z,2.40
2019-02-12T05:46:28.247Z,2.30
2019-02-12T05:48:32.691Z,2.40
2019-02-12T05:50:37.850Z,2.40
2019-02-12T05:52:42.285Z,2.50
2019-02-12T05:54:46.724Z,2.50
2019-02-12T05:56:51.058Z,2.50
2019-02-12T05:58:55.818Z,2.50
2019-02-12T06:01:00.222Z,2.50
2019-02-12T06:03:07.522Z,2.50
2019-02-12T06:05:12.748Z,2.50
2019-02-12T06:07:24.030Z,2.50
2019-02-12T06:09:33.120Z,2.50
2019-02-12T06:11:37.489Z,2.40
2019-02-12T06:13:41.840Z,2.50
2019-02-12T06:15:46.761Z,2.50
2019-02-12T06:17:54.186Z,2.50
2019-02-12T06:19:59.021Z,2.50
2019-02-12T06:22:04.648Z,2.50
2019-02-12T06:24:09.084Z,2.50
2019-02-12T06:26:13.446Z,2.50
2019-02-12T06:28:18.118Z,2.50
2019-02-12T06:30:22.567Z,2.50
2019-02-12T06:32:27.168Z,2.50
2019-02-12T06:34:31.761Z,2.50
2019-02-12T06:36:36.287Z,2.50
2019-02-12T06:38:40.808Z,2.50
2019-02-12T06:40:45.331Z,2.50
2019-02-12T06:42:49.871Z,2.50
2019-02-12T06:44:56.335Z,2.50
2019-02-12T06:47:00.834Z,2.50
2019-02-12T06:49:05.223Z,2.50
2019-02-12T06:51:11.299Z,2.50
2019-02-12T06:53:17.207Z,2.50
2019-02-12T06:55:21.720Z,2.50
2019-02-12T06:57:26.192Z,2.50
2019-02-12T06:59:30.609Z,2.50
2019-02-12T07:01:35.044Z,2.60
2019-02-12T07:04:00.509Z,2.60
2019-02-12T07:06:11.634Z,2.60
2019-02-12T07:08:46.928Z,2.60
2019-02-12T07:10:52.066Z,2.60
2019-02-12T07:13:16.780Z,2.50
2019-02-12T07:15:35.013Z,2.50
2019-02-12T07:18:22.287Z,2.60
2019-02-12T07:21:07.548Z,2.60
2019-02-12T07:23:48.703Z,2.70
2019-02-12T07:26:32.777Z,2.70
2019-02-12T07:29:17.028Z,2.70
2019-02-12T07:31:57.897Z,2.80
2019-02-12T07:34:37.187Z,2.90
2019-02-12T07:37:11.607Z,3.00
2019-02-12T07:39:40.859Z,3.10
2019-02-12T07:41:59.718Z,3.10
2019-02-12T07:44:25.153Z,3.20
2019-02-12T07:46:53.229Z,3.30
2019-02-12T07:49:35.576Z,3.30
2019-02-12T07:52:24.966Z,3.40
2019-02-12T07:54:50.674Z,3.40
2019-02-12T07:57:20.232Z,3.50
2019-02-12T08:00:08.856Z,3.50
2019-02-12T08:02:56.882Z,3.50
2019-02-12T08:05:37.442Z,3.50
2019-02-12T08:08:38.100Z,3.50
2019-02-12T08:11:05.610Z,3.60
2019-02-12T08:13:38.172Z,3.60
2019-02-12T08:15:57.412Z,3.70
2019-02-12T08:18:09.350Z,3.60
2019-02-12T08:20:56.896Z,3.60
2019-02-12T08:23:17.925Z,3.60
2019-02-12T08:26:09.190Z,3.70
2019-02-12T08:29:22.126Z,3.70
2019-02-12T08:32:08.538Z,3.80
2019-02-12T08:34:53.414Z,3.90
2019-02-12T08:37:40.327Z,3.80
2019-02-12T08:40:35.097Z,3.80
2019-02-12T08:43:16.854Z,3.80
2019-02-12T08:45:58.024Z,3.80
2019-02-12T08:48:31.843Z,3.90
2019-02-12T08:51:10.667Z,3.90
2019-02-12T08:53:58.399Z,4.00
2019-02-12T08:56:51.510Z,4.10
2019-02-12T08:59:18.746Z,4.20
2019-02-12T09:01:58.758Z,4.20
2019-02-12T09:04:38.555Z,4.20
2019-02-12T09:07:22.849Z,4.30
2019-02-12T09:10:10.395Z,4.40
2019-02-12T09:13:03.511Z,4.40
2019-02-12T09:15:58.502Z,4.50
2019-02-12T09:18:45.942Z,4.60
2019-02-12T09:21:44.417Z,4.70
2019-02-12T09:24:26.945Z,4.70
2019-02-12T09:27:08.200Z,4.70
2019-02-12T09:29:53.066Z,4.60
2019-02-12T09:32:48.198Z,4.60
2019-02-12T09:35:16.585Z,4.60
2019-02-12T09:37:58.101Z,4.70
2019-02-12T09:40:20.695Z,4.70
2019-02-12T09:42:50.660Z,4.80
2019-02-12T09:45:26.392Z,4.90
2019-02-12T09:48:07.138Z,5.10
2019-02-12T09:50:51.764Z,5.00
2019-02-12T09:53:27.154Z,5.10
2019-02-12T09:55:59.283Z,5.10
2019-02-12T09:58:44.486Z,5.00
2019-02-12T10:01:19.916Z,5.00
2019-02-12T10:04:02.879Z,5.00
2019-02-12T10:06:30.591Z,5.10
2019-02-12T10:08:59.971Z,5.10
2019-02-12T10:11:19.526Z,5.20
2019-02-12T10:13:52.418Z,5.30
2019-02-12T10:16:25.743Z,5.30
2019-02-12T10:19:06.785Z,5.30
2019-02-12T10:21:44.832Z,5.50
2019-02-12T10:24:19.797Z,5.50
2019-02-12T10:26:23.092Z,5.50
2019-02-12T10:29:20.566Z,5.60
2019-02-12T10:31:41.641Z,5.60
2019-02-12T10:33:46.201Z,5.70
2019-02-12T10:35:50.579Z,5.80
2019-02-12T10:37:55.710Z,5.90
2019-02-12T10:40:00.237Z,5.90
2019-02-12T10:42:08.870Z,5.90
2019-02-12T10:44:13.330Z,5.70
2019-02-12T10:46:18.193Z,5.70
2019-02-12T10:48:22.612Z,5.70
2019-02-12T10:50:28.089Z,5.70
2019-02-12T10:52:32.803Z,5.80
2019-02-12T10:54:37.970Z,5.80
2019-02-12T10:56:42.330Z,5.90
2019-02-12T10:58:47.317Z,6.10
2019-02-12T11:00:51.776Z,6.00
2019-02-12T11:02:57.521Z,5.90
2019-02-12T11:05:02.722Z,5.90
2019-02-12T11:07:07.783Z,5.90
2019-02-12T11:09:12.550Z,5.90
2019-02-12T11:11:17.255Z,5.90
2019-02-12T11:13:23.357Z,6.00
2019-02-12T11:15:27.847Z,5.90
2019-02-12T11:17:32.463Z,6.10
2019-02-12T11:19:37.339Z,5.90
2019-02-12T11:21:41.757Z,5.90
2019-02-12T11:23:47.742Z,5.90
2019-02-12T11:25:52.352Z,5.80
2019-02-12T11:27:56.754Z,5.80
2019-02-12T11:30:01.540Z,5.80
2019-02-12T11:32:06.139Z,5.90
2019-02-12T11:34:10.940Z,6.00
2019-02-12T11:36:15.459Z,6.00
2019-02-12T11:38:19.984Z,6.00
2019-02-12T11:40:24.452Z,6.00
2019-02-12T11:42:29.268Z,6.00
2019-02-12T11:44:34.010Z,6.00
2019-02-12T11:46:38.869Z,6.10
2019-02-12T11:48:43.298Z,6.20
2019-02-12T11:50:48.079Z,6.00
2019-02-12T11:52:52.478Z,6.00
2019-02-12T11:54:57.077Z,6.10
2019-02-12T11:57:01.921Z,6.20
2019-02-12T11:59:06.647Z,6.20
2019-02-12T12:01:15.779Z,6.30
2019-02-12T12:03:20.662Z,6.40
2019-02-12T12:05:25.824Z,6.50
2019-02-12T12:07:30.235Z,6.50
2019-02-12T12:09:35.203Z,6.50
2019-02-12T12:11:39.645Z,6.60
2019-02-12T12:13:44.324Z,6.60
2019-02-12T12:15:48.836Z,6.70
2019-02-12T12:17:53.403Z,6.60
2019-02-12T12:19:57.946Z,6.70
2019-02-12T12:22:02.606Z,6.70
2019-02-12T12:24:08.591Z,6.70
2019-02-12T12:26:13.383Z,6.90
2019-02-12T12:28:17.999Z,6.90
2019-02-12T12:30:22.513Z,6.90
2019-02-12T12:36:21.320Z,7.00
2019-02-12T12:38:26.659Z,6.90
2019-02-12T12:40:31.111Z,7.10
2019-02-12T12:42:35.582Z,7.30
2019-02-12T12:44:41.032Z,7.40
2019-02-12T12:46:45.398Z,7.30
2019-02-12T12:48:49.985Z,7.30
2019-02-12T12:50:54.440Z,7.40
2019-02-12T12:52:59.248Z,7.40
2019-02-12T12:55:04.466Z,7.40
2019-02-12T12:57:09.475Z,7.20
2019-02-12T12:59:13.882Z,7.20
2019-02-12T13:01:18.917Z,7.10
2019-02-12T13:03:23.873Z,7.00
2019-02-12T13:05:30.180Z,6.80
2019-02-12T13:07:35.082Z,6.90
2019-02-12T13:09:39.530Z,7.10
2019-02-12T13:11:44.487Z,7.00
2019-02-12T13:13:48.930Z,7.10
2019-02-12T13:15:54.288Z,7.10
2019-02-12T13:17:58.720Z,7.20
2019-02-12T13:20:07.436Z,7.20
2019-02-12T13:22:11.901Z,7.20
2019-02-12T13:24:17.916Z,7.30
2019-02-12T13:26:22.606Z,7.40
2019-02-12T13:28:27.256Z,7.40
2019-02-12T13:30:31.738Z,7.40
2019-02-12T13:32:36.802Z,7.40
2019-02-12T13:34:41.336Z,7.40
2019-02-12T13:36:46.475Z,7.40
2019-02-12T13:38:51.169Z,7.40
2019-02-12T13:40:55.811Z,7.40
2019-02-12T13:43:00.666Z,7.40
2019-02-12T13:45:06.547Z,7.40
2019-02-12T13:47:11.431Z,7.30
2019-02-12T13:49:15.849Z,7.40
2019-02-12T13:51:20.608Z,7.40
2019-02-12T13:53:25.603Z,7.40
2019-02-12T13:55:30.878Z,7.40
2019-02-12T13:57:35.458Z,7.50
2019-02-12T13:59:41.151Z,7.40
2019-02-12T14:01:45.755Z,7.40
2019-02-12T14:03:51.070Z,7.40
2019-02-12T14:05:55.875Z,7.50
2019-02-12T14:08:00.441Z,7.50
2019-02-12T14:10:05.679Z,7.50
2019-02-12T14:12:10.999Z,7.60
2019-02-12T14:14:15.503Z,7.60
2019-02-12T14:16:20.987Z,7.70
2019-02-12T14:18:26.300Z,7.70
2019-02-12T14:20:34.320Z,7.80
2019-02-12T14:22:39.597Z,7.80
2019-02-12T14:24:45.350Z,7.90
2019-02-12T14:26:49.799Z,7.90
2019-02-12T14:28:56.920Z,7.80
2019-02-12T14:31:01.838Z,7.80
2019-02-12T14:33:07.028Z,7.90
2019-02-12T14:35:12.722Z,7.80
2019-02-12T14:37:17.632Z,7.80
2019-02-12T14:39:25.168Z,7.80
2019-02-12T14:41:30.288Z,7.80
2019-02-12T14:43:34.696Z,7.70
2019-02-12T14:45:39.712Z,7.60
2019-02-12T14:47:45.506Z,7.60
2019-02-12T14:49:50.619Z,7.80
2019-02-12T14:51:55.924Z,7.60
2019-02-12T14:54:02.171Z,7.60
2019-02-12T14:56:11.401Z,7.50
2019-02-12T14:58:13.139Z,7.60
2019-02-12T15:00:18.366Z,7.50
2019-02-12T15:02:23.156Z,7.50
2019-02-12T15:04:28.260Z,7.50
2019-02-12T15:06:33.595Z,7.50
2019-02-12T15:08:38.398Z,7.50
2019-02-12T15:10:43.352Z,7.60
2019-02-12T15:12:48.910Z,7.70
2019-02-12T15:14:53.467Z,7.60
2019-02-12T15:16:58.447Z,7.60
2019-02-12T15:19:03.269Z,7.60
2019-02-12T15:21:07.944Z,7.60
2019-02-12T15:23:13.203Z,7.60
2019-02-12T15:25:18.968Z,7.50
2019-02-12T15:27:24.168Z,7.60
2019-02-12T15:29:29.285Z,7.60
2019-02-12T15:31:33.811Z,7.50
2019-02-12T15:33:38.439Z,7.40
2019-02-12T15:35:42.905Z,7.30
2019-02-12T15:37:48.090Z,7.30
2019-02-12T15:39:52.788Z,7.20
2019-02-12T15:41:57.958Z,7.20
2019-02-12T15:44:02.940Z,7.20
2019-02-12T15:46:08.125Z,7.10
2019-02-12T15:48:13.130Z,7.10
2019-02-12T15:50:17.797Z,7.10
2019-02-12T15:52:22.213Z,7.10
2019-02-12T15:54:27.233Z,7.10
2019-02-12T15:56:31.896Z,7.00
2019-02-12T15:58:36.384Z,7.00
2019-02-12T16:00:43.364Z,7.00
2019-02-12T16:02:47.962Z,6.90
2019-02-12T16:04:52.434Z,6.90
2019-02-12T16:06:57.772Z,6.90
2019-02-12T16:09:04.763Z,6.80
2019-02-12T16:11:09.972Z,6.80
2019-02-12T16:13:15.912Z,6.70
2019-02-12T16:15:22.468Z,6.70
2019-02-12T16:17:26.708Z,6.60
2019-02-12T16:19:49.888Z,6.60
2019-02-12T16:21:54.328Z,6.50
2019-02-12T16:23:58.766Z,6.50
2019-02-12T16:26:04.275Z,6.50
2019-02-12T16:28:09.188Z,6.50
2019-02-12T16:30:16.156Z,6.40
2019-02-12T16:32:20.609Z,6.40
2019-02-12T16:34:25.131Z,6.30
2019-02-12T16:36:30.595Z,6.30
2019-02-12T16:38:35.471Z,6.20
2019-02-12T16:40:40.057Z,6.20
2019-02-12T16:42:44.477Z,6.10
2019-02-12T16:44:49.600Z,6.10
2019-02-12T16:46:54.195Z,6.00
2019-02-12T16:48:59.014Z,6.10
2019-02-12T16:51:03.609Z,6.00
2019-02-12T16:53:08.074Z,6.00
2019-02-12T16:55:15.595Z,5.90
2019-02-12T16:57:20.284Z,5.90
2019-02-12T16:59:24.974Z,5.90
2019-02-12T17:01:29.904Z,5.90
2019-02-12T17:03:38.185Z,5.90
2019-02-12T17:05:43.093Z,5.90
2019-02-12T17:07:47.492Z,5.90
2019-02-12T17:09:52.556Z,5.90
2019-02-12T17:11:57.585Z,5.90
2019-02-12T17:14:05.183Z,5.90
2019-02-12T17:16:10.055Z,5.90
2019-02-12T17:18:15.505Z,5.90
2019-02-12T17:20:20.604Z,6.00
2019-02-12T17:22:25.796Z,6.00
2019-02-12T17:24:31.167Z,6.00
2019-02-12T17:26:37.101Z,6.10
2019-02-12T17:28:42.157Z,6.10
2019-02-12T17:30:46.718Z,6.10
2019-02-12T17:32:53.092Z,6.10
2019-02-12T17:35:01.533Z,6.20
2019-02-12T17:37:04.155Z,6.20
2019-02-12T17:39:08.824Z,6.30
2019-02-12T17:41:13.399Z,6.30
2019-02-12T17:43:18.775Z,6.30
2019-02-12T17:45:27.518Z,6.30
2019-02-12T17:47:34.458Z,6.40
2019-02-12T17:49:39.207Z,6.40
2019-02-12T17:51:44.061Z,6.40
2019-02-12T17:53:51.829Z,6.30
2019-02-12T17:55:56.756Z,6.30
2019-02-12T17:58:01.161Z,6.40
2019-02-12T18:00:11.614Z,6.40
2019-02-12T18:02:17.099Z,6.40
2019-02-12T18:04:22.356Z,6.40
2019-02-12T18:06:26.863Z,6.40
2019-02-12T18:08:31.662Z,6.40
2019-02-12T18:10:36.522Z,6.40
2019-02-12T18:12:41.193Z,6.40
2019-02-12T18:14:46.634Z,6.40
2019-02-12T18:16:54.565Z,6.40
2019-02-12T18:18:59.495Z,6.40
2019-02-12T18:21:04.088Z,6.30
2019-02-12T18:23:10.997Z,6.30
2019-02-12T18:25:15.470Z,6.30
2019-02-12T18:27:21.347Z,6.30
2019-02-12T18:29:26.617Z,6.30
2019-02-12T18:31:36.459Z,6.20
2019-02-12T18:33:41.024Z,6.20
2019-02-12T18:35:45.496Z,6.10
2019-02-12T18:37:50.010Z,6.10
2019-02-12T18:39:55.797Z,6.00
2019-02-12T18:42:01.379Z,6.00
2019-02-12T18:44:06.233Z,6.00
2019-02-12T18:46:11.276Z,6.00
2019-02-12T18:48:16.119Z,5.90
2019-02-12T18:50:21.148Z,5.90
2019-02-12T18:52:27.133Z,5.90
2019-02-12T18:54:31.873Z,5.90
2019-02-12T18:56:41.569Z,5.90
2019-02-12T18:58:45.223Z,5.90
2019-02-12T19:00:50.624Z,5.90
2019-02-12T19:02:55.127Z,5.90
2019-02-12T19:05:00.135Z,5.90
2019-02-12T19:07:07.427Z,5.90
2019-02-12T19:09:13.831Z,5.80
2019-02-12T19:11:18.272Z,5.80
2019-02-12T19:13:22.817Z,5.80
2019-02-12T19:15:27.642Z,5.70
2019-02-12T19:17:32.106Z,5.70
2019-02-12T19:19:39.817Z,5.60
2019-02-12T19:21:45.073Z,5.60
2019-02-12T19:23:51.066Z,5.50
2019-02-12T19:25:58.293Z,5.50
2019-02-12T19:28:03.728Z,5.40
2019-02-12T19:30:13.522Z,5.50
2019-02-12T19:32:18.078Z,5.50
2019-02-12T19:34:23.465Z,5.50
2019-02-12T19:36:31.170Z,5.40
2019-02-12T19:38:36.242Z,5.40
2019-02-12T19:40:41.068Z,5.40
2019-02-12T19:42:45.730Z,5.40
2019-02-12T19:44:50.664Z,5.40
2019-02-12T19:46:58.766Z,5.40
2019-02-12T19:49:05.264Z,5.40
2019-02-12T19:51:10.920Z,5.40
2019-02-12T19:53:18.998Z,5.40
2019-02-12T19:55:23.963Z,5.40
2019-02-12T19:57:29.007Z,5.30
2019-02-12T19:59:35.777Z,5.30
2019-02-12T20:01:41.542Z,5.30
2019-02-12T20:03:51.317Z,5.30
2019-02-12T20:06:00.796Z,5.30
2019-02-12T20:08:07.532Z,5.20
2019-02-12T20:10:22.294Z,5.20
2019-02-12T20:12:33.284Z,5.20
2019-02-12T20:14:38.156Z,5.10
2019-02-12T20:16:42.998Z,5.10
2019-02-12T20:18:53.164Z,5.10
2019-02-12T20:21:00.965Z,5.10
2019-02-12T20:23:10.418Z,5.10
2019-02-12T20:25:19.713Z,5.10
2019-02-12T20:27:25.170Z,5.10
2019-02-12T20:29:31.556Z,5.10
2019-02-12T20:31:36.384Z,5.10
2019-02-12T20:33:59.403Z,5.10
2019-02-12T20:42:40.259Z,5.00
2019-02-12T20:45:50.569Z,4.90
2019-02-12T20:48:25.638Z,4.90
2019-02-12T20:59:34.356Z,4.90
2019-02-12T21:01:45.225Z,4.90
2019-02-12T21:03:54.214Z,4.90
2019-02-12T21:05:59.670Z,4.90
2019-02-12T21:08:04.627Z,4.90
2019-02-12T21:10:11.039Z,4.90
2019-02-12T21:12:29.449Z,4.90
2019-02-12T21:14:37.381Z,4.90
2019-02-12T21:16:46.583Z,4.80
2019-02-12T21:18:51.999Z,4.90
2019-02-12T21:20:59.101Z,4.80
2019-02-12T21:23:05.190Z,4.80
2019-02-12T21:25:13.035Z,4.80
2019-02-12T21:27:23.346Z,4.80
2019-02-12T21:29:26.883Z,4.90
2019-02-12T21:31:33.348Z,4.90
2019-02-12T21:33:38.623Z,4.90
2019-02-12T21:35:46.155Z,4.90
2019-02-12T21:38:12.258Z,4.90
2019-02-12T21:40:37.261Z,4.90
2019-02-12T21:42:42.384Z,4.90
2019-02-12T21:44:50.338Z,4.90
2019-02-12T21:47:04.027Z,4.90
2019-02-12T21:49:23.063Z,4.90
2019-02-12T21:51:34.816Z,4.90
2019-02-12T21:53:41.984Z,4.90
2019-02-12T21:55:46.712Z,4.90
2019-02-12T21:57:51.384Z,4.90
2019-02-12T21:59:56.317Z,4.90
2019-02-12T22:02:03.489Z,4.90
2019-02-12T22:04:16.022Z,4.90
2019-02-12T22:06:22.314Z,4.90
2019-02-12T22:08:36.183Z,4.80
2019-02-12T22:10:46.409Z,4.80
2019-02-12T22:12:51.768Z,4.80
2019-02-12T22:14:57.854Z,4.90
2019-02-12T22:17:05.656Z,4.90
2019-02-12T22:19:10.993Z,4.90
2019-02-12T22:21:15.863Z,4.80
2019-02-12T22:23:21.046Z,4.80
2019-02-12T22:25:25.951Z,4.90
2019-02-12T22:27:30.805Z,4.90
2019-02-12T22:29:42.380Z,4.90
2019-02-12T22:31:48.952Z,4.90
2019-02-12T22:33:58.062Z,4.90
2019-02-12T22:36:02.521Z,4.80
2019-02-12T22:38:10.361Z,4.80
2019-02-12T22:40:15.905Z,4.80
2019-02-12T22:42:20.697Z,4.70
2019-02-12T22:44:25.951Z,4.70
2019-02-12T22:46:35.372Z,4.70
2019-02-12T22:48:45.030Z,4.60
2019-02-12T22:50:50.699Z,4.70
2019-02-12T22:53:10.107Z,4.70
2019-02-12T22:55:20.432Z,4.70
2019-02-12T22:57:48.893Z,4.60
2019-02-12T22:59:49.081Z,4.60
2019-02-12T23:01:53.626Z,4.50
2019-02-12T23:03:58.925Z,4.40
2019-02-12T23:06:03.855Z,4.40
2019-02-12T23:08:08.654Z,4.40
2019-02-12T23:10:13.341Z,4.40
2019-02-12T23:12:20.859Z,4.30
2019-02-12T23:14:26.649Z,4.30
2019-02-12T23:16:32.127Z,4.30
2019-02-12T23:18:38.640Z,4.30
2019-02-12T23:20:45.600Z,4.30
2019-02-12T23:22:51.939Z,4.30
2019-02-12T23:24:56.691Z,4.30
2019-02-12T23:27:03.690Z,4.20
2019-02-12T23:29:08.358Z,4.20
2019-02-12T23:31:12.852Z,4.20
2019-02-12T23:33:18.524Z,4.10
2019-02-12T23:35:23.427Z,4.10
2019-02-12T23:37:27.936Z,4.10
2019-02-12T23:39:34.201Z,4.10
2019-02-12T23:41:38.850Z,4.10
2019-02-12T23:43:43.648Z,4.10
2019-02-12T23:45:50.207Z,4.10
2019-02-12T23:47:55.721Z,4.10
2019-02-12T23:50:00.464Z,4.10
2019-02-12T23:52:06.211Z,4.10
2019-02-12T23:54:11.019Z,4.10
2019-02-12T23:56:15.458Z,4.10
2019-02-12T23:58:19.922Z,4.10
